Stations météo

réclame
Mon MeteoGroup
Carterhouse, Grande-Bretagne (99129): Température de l'air & dewpoint: 21.05.2018 06:00:00 - 27.05.2018 06:00:00 (BST)Carterhouse, Grande-Bretagne (99129): Température de l'air -20cm & Température de l'air -100cm: 21.05.2018 06:00:00 - 27.05.2018 06:00:00 (BST)Carterhouse, Grande-Bretagne (99129): Quantités de précipitations: 21.05.2018 06:00:00 - 27.05.2018 06:00:00 (BST)
Date & Time tt [°C] td [°C] tt -20cm [°C] tt -100cm [°C] rr [mm]
27.05.2018 06:00:00 8,8 8,8 - - 0,0
27.05.2018 05:00:00 8,7 8,7 - - 0,0
27.05.2018 04:00:00 8,5 8,5 - - 0,0
27.05.2018 03:00:00 8,5 8,5 - - 0,0
27.05.2018 02:00:00 8,5 8,5 - - 0,0
27.05.2018 01:00:00 8,5 8,5 - - 0,0
27.05.2018 00:00:00 8,5 8,5 - - 0,0
26.05.2018 23:00:00 8,7 8,5 - - 0,0
26.05.2018 22:00:00 8,8 8,2 - - 0,0
26.05.2018 21:00:00 9,3 7,9 - - 0,0
26.05.2018 20:00:00 13,4 8,5 - - 0,0
26.05.2018 19:00:00 15,2 9,6 - - 0,0
26.05.2018 18:00:00 16,0 10,7 - - 0,0
26.05.2018 17:00:00 15,7 10,1 - - 0,0
26.05.2018 16:00:00 17,5 11,5 - - 0,0
26.05.2018 15:00:00 20,6 9,6 - - 0,0
26.05.2018 14:00:00 17,7 11,0 - - 0,0
26.05.2018 13:00:00 15,2 11,6 - - 0,0
26.05.2018 12:00:00 14,3 12,2 - - 0,0
26.05.2018 11:00:00 12,3 12,3 - - 0,0
26.05.2018 10:00:00 10,2 10,2 13,0 10,7 0,0
26.05.2018 09:00:00 9,3 9,3 - - 0,0
26.05.2018 08:00:00 9,1 9,1 - - 0,0
26.05.2018 07:00:00 8,8 8,8 - - 0,0
26.05.2018 06:00:00 8,7 8,7 - - 0,0
26.05.2018 05:00:00 8,7 8,7 - - 0,0
26.05.2018 04:00:00 8,8 8,8 - - 0,0
26.05.2018 03:00:00 8,8 8,8 - - 0,0
26.05.2018 02:00:00 8,8 8,7 - - 0,0
26.05.2018 01:00:00 8,6 8,6 - - 0,0
26.05.2018 00:00:00 8,8 8,8 - - 0,0
25.05.2018 23:00:00 9,0 8,9 - - 0,0
25.05.2018 22:00:00 9,5 9,2 - - 0,0
25.05.2018 21:00:00 9,9 9,7 - - 0,0
25.05.2018 20:00:00 10,3 10,0 - - 0,8
25.05.2018 19:00:00 10,7 9,9 - - 2,0
25.05.2018 18:00:00 12,7 10,2 - - 0,0
25.05.2018 17:00:00 13,2 9,3 - - 0,0
25.05.2018 16:00:00 15,7 9,3 - - 0,0
25.05.2018 15:00:00 17,3 10,0 - - 0,0
25.05.2018 14:00:00 18,5 9,9 - - 0,0
25.05.2018 13:00:00 18,1 10,2 - - 0,0
25.05.2018 12:00:00 15,2 9,5 - - 0,0
25.05.2018 11:00:00 13,5 10,5 - - 0,0
25.05.2018 10:00:00 10,0 9,3 12,7 10,5 0,0
25.05.2018 09:00:00 8,5 8,3 - - 0,0
25.05.2018 08:00:00 8,3 8,1 - - 0,0
25.05.2018 07:00:00 7,4 7,3 - - 0,0
25.05.2018 06:00:00 6,6 6,6 - - 0,0
25.05.2018 05:00:00 6,3 6,3 - - 0,0
25.05.2018 04:00:00 6,3 6,3 - - 0,0
25.05.2018 03:00:00 6,3 6,3 - - 0,0
25.05.2018 02:00:00 6,6 6,6 - - 0,0
25.05.2018 01:00:00 6,6 6,6 - - 0,0
25.05.2018 00:00:00 5,2 4,9 - - 0,0
24.05.2018 23:00:00 6,1 5,7 - - 0,0
24.05.2018 22:00:00 9,0 7,4 - - 0,0
24.05.2018 21:00:00 13,2 8,2 - - 0,0
24.05.2018 20:00:00 14,8 8,8 - - 0,0
24.05.2018 19:00:00 17,5 9,1 - - 0,0
24.05.2018 18:00:00 18,0 9,6 - - 0,0
24.05.2018 17:00:00 18,6 9,9 - - 0,0
24.05.2018 16:00:00 18,9 10,4 - - 0,0
24.05.2018 15:00:00 18,7 9,3 - - 0,0
24.05.2018 14:00:00 18,6 10,1 - - 0,0
24.05.2018 13:00:00 15,5 10,2 - - 0,0
24.05.2018 12:00:00 14,5 9,9 - - 0,0
24.05.2018 11:00:00 14,2 9,1 - - 0,0
24.05.2018 10:00:00 11,9 8,8 12,2 10,4 0,0
24.05.2018 09:00:00 7,7 7,5 - - 0,0
24.05.2018 08:00:00 5,1 4,9 - - 0,0
24.05.2018 07:00:00 3,8 3,8 - - 0,0
24.05.2018 06:00:00 3,1 3,1 - - 0,2
24.05.2018 05:00:00 2,0 2,0 - - 0,0
24.05.2018 04:00:00 0,5 0,2 - - 0,0
24.05.2018 03:00:00 3,8 3,8 - - 0,0
24.05.2018 02:00:00 3,8 3,8 - - 0,0
24.05.2018 01:00:00 4,6 4,6 - - 0,0
24.05.2018 00:00:00 4,5 3,6 - - 0,0
23.05.2018 23:00:00 4,7 3,7 - - 0,0
23.05.2018 22:00:00 6,8 6,1 - - 0,0
23.05.2018 21:00:00 8,4 6,1 - - 0,0
23.05.2018 20:00:00 11,1 7,2 - - 0,0
23.05.2018 19:00:00 12,9 8,4 - - 0,0
23.05.2018 18:00:00 14,2 8,4 - - 0,0
23.05.2018 17:00:00 14,4 8,4 - - 0,0
23.05.2018 16:00:00 14,7 9,1 - - 0,0
23.05.2018 15:00:00 14,5 8,9 - - 0,0
23.05.2018 14:00:00 13,0 9,3 - - 0,0
23.05.2018 13:00:00 11,4 8,9 - - 0,0
23.05.2018 12:00:00 10,5 7,7 - - 0,0
23.05.2018 11:00:00 9,5 7,3 - - 0,0
23.05.2018 10:00:00 7,9 6,5 12,2 10,2 0,0
23.05.2018 09:00:00 7,0 6,6 - - 0,0
23.05.2018 08:00:00 6,3 6,3 - - 0,0
23.05.2018 07:00:00 6,2 6,2 - - 0,0
23.05.2018 06:00:00 6,1 6,1 - - 0,0
23.05.2018 05:00:00 6,0 6,0 - - 0,0
23.05.2018 04:00:00 6,3 6,3 - - 0,0
23.05.2018 03:00:00 6,3 6,3 - - 0,0
23.05.2018 02:00:00 6,4 6,4 - - 0,2
23.05.2018 01:00:00 6,4 6,4 - - 0,0
23.05.2018 00:00:00 6,6 6,5 - - 0,0
22.05.2018 23:00:00 6,7 6,6 - - 0,0
22.05.2018 22:00:00 6,8 6,7 - - 0,0
22.05.2018 21:00:00 6,9 6,8 - - 0,0
22.05.2018 20:00:00 7,3 7,0 - - 0,2
22.05.2018 19:00:00 7,7 7,4 - - 0,0
22.05.2018 18:00:00 8,1 7,6 - - 0,0
22.05.2018 17:00:00 8,3 7,8 - - 0,0
22.05.2018 16:00:00 8,5 7,9 - - 0,0
22.05.2018 15:00:00 8,4 8,0 - - 0,0
22.05.2018 14:00:00 8,0 7,6 - - 0,0
22.05.2018 13:00:00 8,1 7,7 - - 0,2
22.05.2018 12:00:00 7,1 6,8 - - 0,0
22.05.2018 11:00:00 7,2 6,9 - - 0,0
22.05.2018 10:00:00 6,7 6,6 12,7 10,2 0,2
22.05.2018 09:00:00 6,6 6,4 - - 0,2
22.05.2018 08:00:00 6,3 6,3 - - 0,0
22.05.2018 07:00:00 6,2 6,2 - - 0,2
22.05.2018 06:00:00 5,9 5,9 - - 0,0
22.05.2018 05:00:00 6,0 6,0 - - 0,2
22.05.2018 04:00:00 6,3 6,3 - - 0,0
22.05.2018 03:00:00 6,4 6,4 - - 0,0
22.05.2018 02:00:00 6,6 6,6 - - 0,0
22.05.2018 01:00:00 7,4 7,2 - - 0,0
22.05.2018 00:00:00 9,5 7,7 - - 0,0
21.05.2018 23:00:00 11,6 9,0 - - 0,0
21.05.2018 22:00:00 11,0 8,1 - - 0,0
21.05.2018 21:00:00 14,9 10,2 - - 0,0
21.05.2018 20:00:00 18,8 8,8 - - 0,0
21.05.2018 19:00:00 19,7 8,2 - - 0,0
21.05.2018 18:00:00 19,4 8,0 - - 0,0
21.05.2018 17:00:00 19,4 8,5 - - 0,0
21.05.2018 16:00:00 19,6 9,2 - - 0,0
21.05.2018 15:00:00 20,2 9,3 - - 0,0
21.05.2018 14:00:00 19,9 7,8 - - 0,0
21.05.2018 13:00:00 20,9 8,5 - - 0,0
21.05.2018 12:00:00 19,5 9,5 - - 0,0
21.05.2018 11:00:00 19,8 9,5 - - 0,0
21.05.2018 10:00:00 17,8 8,8 12,2 10,0 0,0
21.05.2018 09:00:00 15,6 6,6 - - 0,0
21.05.2018 08:00:00 14,3 6,2 - - 0,0
21.05.2018 07:00:00 12,2 5,2 - - 0,0
21.05.2018 06:00:00 11,6 5,3 - - 0,0

tt = Température de l'air
td = dewpoint
tt -20cm = Température de l'air -20cm
tt -100cm = Température de l'air -100cm
rr = Quantités de précipitations

stations d'obs. à proximité